sensor_id;sensor_type;location;lat;lon;timestamp;temperature;humidity
53294;DHT22;39181;53.440;5.644;2023-03-21T00:01:03;8.40;99.90
53294;DHT22;39181;53.440;5.644;2023-03-21T00:03:31;8.40;99.90
53294;DHT22;39181;53.440;5.644;2023-03-21T00:06:03;8.40;99.90
53294;DHT22;39181;53.440;5.644;2023-03-21T00:08:29;8.30;99.90
53294;DHT22;39181;53.440;5.644;2023-03-21T00:10:57;8.40;99.90
53294;DHT22;39181;53.440;5.644;2023-03-21T00:13:22;8.40;99.90
53294;DHT22;39181;53.440;5.644;2023-03-21T00:15:50;8.40;99.90
53294;DHT22;39181;53.440;5.644;2023-03-21T00:18:22;8.40;99.90
53294;DHT22;39181;53.440;5.644;2023-03-21T00:20:56;8.40;99.90
53294;DHT22;39181;53.440;5.644;2023-03-21T00:23:26;8.40;99.90
53294;DHT22;39181;53.440;5.644;2023-03-21T00:25:52;8.40;99.90
53294;DHT22;39181;53.440;5.644;2023-03-21T00:28:18;8.40;99.90
53294;DHT22;39181;53.440;5.644;2023-03-21T00:30:48;8.40;99.90
53294;DHT22;39181;53.440;5.644;2023-03-21T00:33:13;8.40;99.90
53294;DHT22;39181;53.440;5.644;2023-03-21T00:35:40;8.40;99.90
53294;DHT22;39181;53.440;5.644;2023-03-21T00:38:09;8.40;99.90
53294;DHT22;39181;53.440;5.644;2023-03-21T00:40:35;8.40;99.90
53294;DHT22;39181;53.440;5.644;2023-03-21T00:43:01;8.40;99.90
53294;DHT22;39181;53.440;5.644;2023-03-21T00:45:26;8.40;99.90
53294;DHT22;39181;53.440;5.644;2023-03-21T00:47:52;8.40;99.90
53294;DHT22;39181;53.440;5.644;2023-03-21T00:50:18;8.40;99.90
53294;DHT22;39181;53.440;5.644;2023-03-21T00:52:43;8.40;99.90
53294;DHT22;39181;53.440;5.644;2023-03-21T00:55:13;8.40;99.90
53294;DHT22;39181;53.440;5.644;2023-03-21T00:57:39;8.40;99.90
53294;DHT22;39181;53.440;5.644;2023-03-21T01:00:06;8.40;99.90
53294;DHT22;39181;53.440;5.644;2023-03-21T01:02:34;8.50;99.90
53294;DHT22;39181;53.440;5.644;2023-03-21T01:05:00;8.50;99.90
53294;DHT22;39181;53.440;5.644;2023-03-21T01:07:25;8.50;99.90
53294;DHT22;39181;53.440;5.644;2023-03-21T01:09:51;8.50;99.90
53294;DHT22;39181;53.440;5.644;2023-03-21T01:12:16;8.50;99.90
53294;DHT22;39181;53.440;5.644;2023-03-21T01:14:42;8.50;99.90
53294;DHT22;39181;53.440;5.644;2023-03-21T01:17:07;8.50;99.90
53294;DHT22;39181;53.440;5.644;2023-03-21T01:19:33;8.50;99.90
53294;DHT22;39181;53.440;5.644;2023-03-21T01:21:59;8.50;99.90
53294;DHT22;39181;53.440;5.644;2023-03-21T01:24:24;8.50;99.90
53294;DHT22;39181;53.440;5.644;2023-03-21T01:26:50;8.50;99.90
53294;DHT22;39181;53.440;5.644;2023-03-21T01:29:15;8.50;99.90
53294;DHT22;39181;53.440;5.644;2023-03-21T01:31:41;8.50;99.90
53294;DHT22;39181;53.440;5.644;2023-03-21T01:34:07;8.50;99.90
53294;DHT22;39181;53.440;5.644;2023-03-21T01:36:32;8.50;99.90
53294;DHT22;39181;53.440;5.644;2023-03-21T01:38:58;8.50;99.90
53294;DHT22;39181;53.440;5.644;2023-03-21T01:41:33;8.50;99.90
53294;DHT22;39181;53.440;5.644;2023-03-21T01:44:00;8.50;99.90
53294;DHT22;39181;53.440;5.644;2023-03-21T01:46:39;8.50;99.90
53294;DHT22;39181;53.440;5.644;2023-03-21T01:52:18;8.50;99.90
53294;DHT22;39181;53.440;5.644;2023-03-21T01:54:46;8.50;99.90
53294;DHT22;39181;53.440;5.644;2023-03-21T01:57:17;8.50;99.90
53294;DHT22;39181;53.440;5.644;2023-03-21T01:59:48;8.60;99.90
53294;DHT22;39181;53.440;5.644;2023-03-21T02:02:26;8.50;99.90
53294;DHT22;39181;53.440;5.644;2023-03-21T02:04:53;8.50;99.90
53294;DHT22;39181;53.440;5.644;2023-03-21T02:07:33;8.50;99.90
53294;DHT22;39181;53.440;5.644;2023-03-21T02:10:06;8.50;99.90
53294;DHT22;39181;53.440;5.644;2023-03-21T02:12:34;8.50;99.90
53294;DHT22;39181;53.440;5.644;2023-03-21T02:14:59;8.50;99.90
53294;DHT22;39181;53.440;5.644;2023-03-21T02:17:34;8.50;99.90
53294;DHT22;39181;53.440;5.644;2023-03-21T02:28:25;8.50;99.90
53294;DHT22;39181;53.440;5.644;2023-03-21T02:31:17;8.50;99.90
53294;DHT22;39181;53.440;5.644;2023-03-21T02:36:56;8.50;99.90
53294;DHT22;39181;53.440;5.644;2023-03-21T02:39:45;8.50;99.90
53294;DHT22;39181;53.440;5.644;2023-03-21T02:42:28;8.50;99.90
53294;DHT22;39181;53.440;5.644;2023-03-21T02:44:58;8.50;99.90
53294;DHT22;39181;53.440;5.644;2023-03-21T02:47:41;8.50;99.90
53294;DHT22;39181;53.440;5.644;2023-03-21T02:50:17;8.50;99.90
53294;DHT22;39181;53.440;5.644;2023-03-21T02:52:47;8.50;99.90
53294;DHT22;39181;53.440;5.644;2023-03-21T02:55:16;8.50;99.90
53294;DHT22;39181;53.440;5.644;2023-03-21T02:57:44;8.50;99.90
53294;DHT22;39181;53.440;5.644;2023-03-21T03:00:16;8.50;99.90
53294;DHT22;39181;53.440;5.644;2023-03-21T03:02:43;8.50;99.90
53294;DHT22;39181;53.440;5.644;2023-03-21T03:05:23;8.50;99.90
53294;DHT22;39181;53.440;5.644;2023-03-21T03:08:10;8.50;99.90
53294;DHT22;39181;53.440;5.644;2023-03-21T03:18:59;8.50;99.90
53294;DHT22;39181;53.440;5.644;2023-03-21T03:21:42;8.50;99.90
53294;DHT22;39181;53.440;5.644;2023-03-21T03:26:46;8.50;99.90
53294;DHT22;39181;53.440;5.644;2023-03-21T03:29:14;8.50;99.90
53294;DHT22;39181;53.440;5.644;2023-03-21T03:31:52;8.50;99.90
53294;DHT22;39181;53.440;5.644;2023-03-21T03:34:22;8.50;99.90
53294;DHT22;39181;53.440;5.644;2023-03-21T03:36:54;8.50;99.90
53294;DHT22;39181;53.440;5.644;2023-03-21T03:39:26;8.50;99.90
53294;DHT22;39181;53.440;5.644;2023-03-21T03:41:57;8.50;99.90
53294;DHT22;39181;53.440;5.644;2023-03-21T03:44:25;8.50;99.90
53294;DHT22;39181;53.440;5.644;2023-03-21T03:47:03;8.50;99.90
53294;DHT22;39181;53.440;5.644;2023-03-21T03:50:00;8.50;99.90
53294;DHT22;39181;53.440;5.644;2023-03-21T03:52:31;8.50;99.90
53294;DHT22;39181;53.440;5.644;2023-03-21T03:54:59;8.50;99.90
53294;DHT22;39181;53.440;5.644;2023-03-21T03:57:25;8.50;99.90
53294;DHT22;39181;53.440;5.644;2023-03-21T03:59:52;8.50;99.90
53294;DHT22;39181;53.440;5.644;2023-03-21T04:02:17;8.50;99.90
53294;DHT22;39181;53.440;5.644;2023-03-21T04:04:44;8.60;99.90
53294;DHT22;39181;53.440;5.644;2023-03-21T04:07:11;8.50;99.90
53294;DHT22;39181;53.440;5.644;2023-03-21T04:09:37;8.60;99.90
53294;DHT22;39181;53.440;5.644;2023-03-21T04:12:03;8.50;99.90
53294;DHT22;39181;53.440;5.644;2023-03-21T04:14:28;8.50;99.90
53294;DHT22;39181;53.440;5.644;2023-03-21T04:16:54;8.60;99.90
53294;DHT22;39181;53.440;5.644;2023-03-21T04:19:20;8.60;99.90
53294;DHT22;39181;53.440;5.644;2023-03-21T04:21:46;8.60;99.90
53294;DHT22;39181;53.440;5.644;2023-03-21T04:24:12;8.60;99.90
53294;DHT22;39181;53.440;5.644;2023-03-21T04:26:38;8.50;99.90
53294;DHT22;39181;53.440;5.644;2023-03-21T04:29:04;8.60;99.90
53294;DHT22;39181;53.440;5.644;2023-03-21T04:31:31;8.60;99.90
53294;DHT22;39181;53.440;5.644;2023-03-21T04:33:59;8.60;99.90
53294;DHT22;39181;53.440;5.644;2023-03-21T04:36:26;8.60;99.90
53294;DHT22;39181;53.440;5.644;2023-03-21T04:38:56;8.60;99.90
53294;DHT22;39181;53.440;5.644;2023-03-21T04:41:28;8.60;99.90
53294;DHT22;39181;53.440;5.644;2023-03-21T04:43:54;8.60;99.90
53294;DHT22;39181;53.440;5.644;2023-03-21T04:46:20;8.60;99.90
53294;DHT22;39181;53.440;5.644;2023-03-21T04:48:46;8.60;99.90
53294;DHT22;39181;53.440;5.644;2023-03-21T04:51:13;8.60;99.90
53294;DHT22;39181;53.440;5.644;2023-03-21T04:53:39;8.60;99.90
53294;DHT22;39181;53.440;5.644;2023-03-21T04:56:07;8.60;99.90
53294;DHT22;39181;53.440;5.644;2023-03-21T04:58:32;8.50;99.90
53294;DHT22;39181;53.440;5.644;2023-03-21T05:00:58;8.50;99.90
53294;DHT22;39181;53.440;5.644;2023-03-21T05:03:26;8.60;99.90
53294;DHT22;39181;53.440;5.644;2023-03-21T05:05:54;8.60;99.90
53294;DHT22;39181;53.440;5.644;2023-03-21T05:08:20;8.60;99.90
53294;DHT22;39181;53.440;5.644;2023-03-21T05:10:45;8.60;99.90
53294;DHT22;39181;53.440;5.644;2023-03-21T05:13:11;8.60;99.90
53294;DHT22;39181;53.440;5.644;2023-03-21T05:15:36;8.60;99.90
53294;DHT22;39181;53.440;5.644;2023-03-21T05:18:02;8.60;99.90
53294;DHT22;39181;53.440;5.644;2023-03-21T05:20:39;8.60;99.90
53294;DHT22;39181;53.440;5.644;2023-03-21T05:23:09;8.60;99.90
53294;DHT22;39181;53.440;5.644;2023-03-21T05:25:36;8.60;99.90
53294;DHT22;39181;53.440;5.644;2023-03-21T05:28:03;8.60;99.90
53294;DHT22;39181;53.440;5.644;2023-03-21T05:30:29;8.60;99.90
53294;DHT22;39181;53.440;5.644;2023-03-21T05:32:55;8.70;99.90
53294;DHT22;39181;53.440;5.644;2023-03-21T05:35:21;8.60;99.90
53294;DHT22;39181;53.440;5.644;2023-03-21T05:37:47;8.60;99.90
53294;DHT22;39181;53.440;5.644;2023-03-21T05:40:12;8.70;99.90
53294;DHT22;39181;53.440;5.644;2023-03-21T05:42:38;8.60;99.90
53294;DHT22;39181;53.440;5.644;2023-03-21T05:45:04;8.60;99.90
53294;DHT22;39181;53.440;5.644;2023-03-21T05:47:30;8.60;99.90
53294;DHT22;39181;53.440;5.644;2023-03-21T05:49:55;8.60;99.90
53294;DHT22;39181;53.440;5.644;2023-03-21T05:52:21;8.60;99.90
53294;DHT22;39181;53.440;5.644;2023-03-21T05:54:47;8.60;99.90
53294;DHT22;39181;53.440;5.644;2023-03-21T05:57:12;8.60;99.90
53294;DHT22;39181;53.440;5.644;2023-03-21T05:59:38;8.60;99.90
53294;DHT22;39181;53.440;5.644;2023-03-21T06:02:03;8.60;99.90
53294;DHT22;39181;53.440;5.644;2023-03-21T06:04:29;8.60;99.90
53294;DHT22;39181;53.440;5.644;2023-03-21T06:06:55;8.60;99.90
53294;DHT22;39181;53.440;5.644;2023-03-21T06:09:21;8.60;99.90
53294;DHT22;39181;53.440;5.644;2023-03-21T06:11:49;8.70;99.90
53294;DHT22;39181;53.440;5.644;2023-03-21T06:14:16;8.60;99.90
53294;DHT22;39181;53.440;5.644;2023-03-21T06:16:42;8.70;99.90
53294;DHT22;39181;53.440;5.644;2023-03-21T06:19:08;8.60;99.90
53294;DHT22;39181;53.440;5.644;2023-03-21T06:21:34;8.60;99.90
53294;DHT22;39181;53.440;5.644;2023-03-21T06:23:59;8.70;99.90
53294;DHT22;39181;53.440;5.644;2023-03-21T06:26:25;8.70;99.90
53294;DHT22;39181;53.440;5.644;2023-03-21T06:28:51;8.40;99.90
53294;DHT22;39181;53.440;5.644;2023-03-21T06:31:18;8.70;99.90
53294;DHT22;39181;53.440;5.644;2023-03-21T06:33:47;8.60;99.90
53294;DHT22;39181;53.440;5.644;2023-03-21T06:36:13;8.70;99.90
53294;DHT22;39181;53.440;5.644;2023-03-21T06:38:39;8.70;99.90
53294;DHT22;39181;53.440;5.644;2023-03-21T06:41:06;8.70;99.90
53294;DHT22;39181;53.440;5.644;2023-03-21T06:43:32;8.70;99.90
53294;DHT22;39181;53.440;5.644;2023-03-21T06:45:58;8.70;99.90
53294;DHT22;39181;53.440;5.644;2023-03-21T06:48:24;8.70;99.90
53294;DHT22;39181;53.440;5.644;2023-03-21T06:50:50;8.80;99.90
53294;DHT22;39181;53.440;5.644;2023-03-21T06:53:16;8.70;99.90
53294;DHT22;39181;53.440;5.644;2023-03-21T06:55:47;8.70;99.90
53294;DHT22;39181;53.440;5.644;2023-03-21T06:58:12;8.70;99.90
53294;DHT22;39181;53.440;5.644;2023-03-21T07:00:38;8.70;99.90
53294;DHT22;39181;53.440;5.644;2023-03-21T07:03:04;8.80;99.90
53294;DHT22;39181;53.440;5.644;2023-03-21T07:05:29;8.70;99.90
53294;DHT22;39181;53.440;5.644;2023-03-21T07:07:55;8.70;99.90
53294;DHT22;39181;53.440;5.644;2023-03-21T07:10:20;8.70;99.90
53294;DHT22;39181;53.440;5.644;2023-03-21T07:12:46;8.80;99.90
53294;DHT22;39181;53.440;5.644;2023-03-21T07:15:11;8.80;99.90
53294;DHT22;39181;53.440;5.644;2023-03-21T07:17:37;8.80;99.90
53294;DHT22;39181;53.440;5.644;2023-03-21T07:20:03;8.80;99.90
53294;DHT22;39181;53.440;5.644;2023-03-21T07:22:33;8.80;99.90
53294;DHT22;39181;53.440;5.644;2023-03-21T07:24:59;8.90;99.90
53294;DHT22;39181;53.440;5.644;2023-03-21T07:27:24;8.90;99.90
53294;DHT22;39181;53.440;5.644;2023-03-21T07:29:50;8.90;99.90
53294;DHT22;39181;53.440;5.644;2023-03-21T07:32:15;8.90;99.90
53294;DHT22;39181;53.440;5.644;2023-03-21T07:34:41;8.90;99.90
53294;DHT22;39181;53.440;5.644;2023-03-21T07:37:07;8.90;99.90
53294;DHT22;39181;53.440;5.644;2023-03-21T07:39:32;9.00;99.90
53294;DHT22;39181;53.440;5.644;2023-03-21T07:41:59;9.00;99.90
53294;DHT22;39181;53.440;5.644;2023-03-21T07:44:26;8.90;99.90
53294;DHT22;39181;53.440;5.644;2023-03-21T07:46:51;9.00;99.90
53294;DHT22;39181;53.440;5.644;2023-03-21T07:49:17;9.00;99.90
53294;DHT22;39181;53.440;5.644;2023-03-21T07:51:42;9.00;99.90
53294;DHT22;39181;53.440;5.644;2023-03-21T07:54:08;9.00;99.90
53294;DHT22;39181;53.440;5.644;2023-03-21T07:56:34;9.00;99.90
53294;DHT22;39181;53.440;5.644;2023-03-21T07:58:59;9.10;99.90
53294;DHT22;39181;53.440;5.644;2023-03-21T08:01:25;9.10;99.90
53294;DHT22;39181;53.440;5.644;2023-03-21T08:03:51;9.10;99.90
53294;DHT22;39181;53.440;5.644;2023-03-21T08:06:19;9.10;99.90
53294;DHT22;39181;53.440;5.644;2023-03-21T08:08:45;9.10;99.90
53294;DHT22;39181;53.440;5.644;2023-03-21T08:11:11;9.20;99.90
53294;DHT22;39181;53.440;5.644;2023-03-21T08:13:37;9.10;99.90
53294;DHT22;39181;53.440;5.644;2023-03-21T08:16:03;9.20;99.90
53294;DHT22;39181;53.440;5.644;2023-03-21T08:18:29;9.20;99.90
53294;DHT22;39181;53.440;5.644;2023-03-21T08:20:56;9.20;99.90
53294;DHT22;39181;53.440;5.644;2023-03-21T08:23:22;9.30;99.90
53294;DHT22;39181;53.440;5.644;2023-03-21T08:25:55;9.40;99.90
53294;DHT22;39181;53.440;5.644;2023-03-21T08:28:22;9.40;99.90
53294;DHT22;39181;53.440;5.644;2023-03-21T08:30:48;9.40;99.90
53294;DHT22;39181;53.440;5.644;2023-03-21T08:33:14;9.40;99.90
53294;DHT22;39181;53.440;5.644;2023-03-21T08:35:42;9.50;99.90
53294;DHT22;39181;53.440;5.644;2023-03-21T08:38:07;9.50;99.90
53294;DHT22;39181;53.440;5.644;2023-03-21T08:40:34;9.50;99.90
53294;DHT22;39181;53.440;5.644;2023-03-21T08:43:00;9.50;99.90
53294;DHT22;39181;53.440;5.644;2023-03-21T08:45:26;9.60;99.90
53294;DHT22;39181;53.440;5.644;2023-03-21T08:47:53;9.50;99.90
53294;DHT22;39181;53.440;5.644;2023-03-21T08:50:20;9.50;99.90
53294;DHT22;39181;53.440;5.644;2023-03-21T08:52:46;9.60;99.90
53294;DHT22;39181;53.440;5.644;2023-03-21T08:55:14;9.50;99.90
53294;DHT22;39181;53.440;5.644;2023-03-21T08:57:40;9.60;99.90
53294;DHT22;39181;53.440;5.644;2023-03-21T09:00:08;9.60;99.90
53294;DHT22;39181;53.440;5.644;2023-03-21T09:02:39;9.60;99.90
53294;DHT22;39181;53.440;5.644;2023-03-21T09:05:04;9.60;99.90
53294;DHT22;39181;53.440;5.644;2023-03-21T09:07:32;9.60;99.90
53294;DHT22;39181;53.440;5.644;2023-03-21T09:10:01;9.50;99.90
53294;DHT22;39181;53.440;5.644;2023-03-21T09:12:26;9.50;99.90
53294;DHT22;39181;53.440;5.644;2023-03-21T09:14:52;9.40;99.90
53294;DHT22;39181;53.440;5.644;2023-03-21T09:17:18;9.40;99.90
53294;DHT22;39181;53.440;5.644;2023-03-21T09:19:44;9.40;99.90
53294;DHT22;39181;53.440;5.644;2023-03-21T09:22:12;9.40;99.90
53294;DHT22;39181;53.440;5.644;2023-03-21T09:24:39;9.30;99.90
53294;DHT22;39181;53.440;5.644;2023-03-21T09:27:06;9.30;99.90
53294;DHT22;39181;53.440;5.644;2023-03-21T09:29:32;9.30;99.90
53294;DHT22;39181;53.440;5.644;2023-03-21T09:31:58;9.30;99.90
53294;DHT22;39181;53.440;5.644;2023-03-21T09:34:25;9.30;99.90
53294;DHT22;39181;53.440;5.644;2023-03-21T09:36:51;9.30;99.90
53294;DHT22;39181;53.440;5.644;2023-03-21T09:39:22;9.30;99.90
53294;DHT22;39181;53.440;5.644;2023-03-21T09:42:01;9.30;99.90
53294;DHT22;39181;53.440;5.644;2023-03-21T09:47:20;9.30;99.90
53294;DHT22;39181;53.440;5.644;2023-03-21T09:50:13;9.40;99.90
53294;DHT22;39181;53.440;5.644;2023-03-21T09:52:57;9.40;99.90
53294;DHT22;39181;53.440;5.644;2023-03-21T09:55:30;9.50;99.90
53294;DHT22;39181;53.440;5.644;2023-03-21T09:58:10;9.60;99.90
53294;DHT22;39181;53.440;5.644;2023-03-21T10:00:43;9.70;99.90
53294;DHT22;39181;53.440;5.644;2023-03-21T10:03:21;9.70;99.90
53294;DHT22;39181;53.440;5.644;2023-03-21T10:05:51;9.90;99.90
53294;DHT22;39181;53.440;5.644;2023-03-21T10:08:17;10.10;99.90
53294;DHT22;39181;53.440;5.644;2023-03-21T10:10:49;10.20;99.90
53294;DHT22;39181;53.440;5.644;2023-03-21T10:13:25;10.30;99.90
53294;DHT22;39181;53.440;5.644;2023-03-21T10:16:10;10.40;99.90
53294;DHT22;39181;53.440;5.644;2023-03-21T10:18:39;10.60;99.90
53294;DHT22;39181;53.440;5.644;2023-03-21T10:21:06;10.70;99.90
53294;DHT22;39181;53.440;5.644;2023-03-21T10:23:32;10.70;99.90
53294;DHT22;39181;53.440;5.644;2023-03-21T10:26:00;10.80;99.90
53294;DHT22;39181;53.440;5.644;2023-03-21T10:28:30;10.80;99.90
53294;DHT22;39181;53.440;5.644;2023-03-21T10:31:02;10.90;99.90
53294;DHT22;39181;53.440;5.644;2023-03-21T10:33:37;11.00;99.90
53294;DHT22;39181;53.440;5.644;2023-03-21T10:36:27;11.00;99.90
53294;DHT22;39181;53.440;5.644;2023-03-21T10:39:06;11.00;99.90
53294;DHT22;39181;53.440;5.644;2023-03-21T10:41:33;11.10;99.90
53294;DHT22;39181;53.440;5.644;2023-03-21T10:44:13;11.20;99.90
53294;DHT22;39181;53.440;5.644;2023-03-21T10:46:52;11.20;99.90
53294;DHT22;39181;53.440;5.644;2023-03-21T10:49:18;11.20;99.90
53294;DHT22;39181;53.440;5.644;2023-03-21T10:51:48;11.10;99.90
53294;DHT22;39181;53.440;5.644;2023-03-21T10:54:18;11.00;99.90
53294;DHT22;39181;53.440;5.644;2023-03-21T10:59:17;11.00;99.90
53294;DHT22;39181;53.440;5.644;2023-03-21T11:01:48;11.00;99.90
53294;DHT22;39181;53.440;5.644;2023-03-21T11:04:20;11.00;99.90
53294;DHT22;39181;53.440;5.644;2023-03-21T11:06:58;11.00;99.90
53294;DHT22;39181;53.440;5.644;2023-03-21T11:12:14;11.10;99.90
53294;DHT22;39181;53.440;5.644;2023-03-21T11:14:48;11.20;99.90
53294;DHT22;39181;53.440;5.644;2023-03-21T11:22:19;11.40;99.90
53294;DHT22;39181;53.440;5.644;2023-03-21T11:24:52;11.40;99.90
53294;DHT22;39181;53.440;5.644;2023-03-21T11:27:18;11.40;99.90
53294;DHT22;39181;53.440;5.644;2023-03-21T11:29:48;11.40;99.90
53294;DHT22;39181;53.440;5.644;2023-03-21T11:32:31;11.50;99.90
53294;DHT22;39181;53.440;5.644;2023-03-21T11:34:58;11.40;99.90
53294;DHT22;39181;53.440;5.644;2023-03-21T11:37:32;11.40;99.90
53294;DHT22;39181;53.440;5.644;2023-03-21T11:42:56;11.30;99.90
53294;DHT22;39181;53.440;5.644;2023-03-21T11:45:24;11.20;99.90
53294;DHT22;39181;53.440;5.644;2023-03-21T11:47:53;11.20;99.90
53294;DHT22;39181;53.440;5.644;2023-03-21T11:50:42;11.10;99.90
53294;DHT22;39181;53.440;5.644;2023-03-21T11:58:53;11.10;99.90
53294;DHT22;39181;53.440;5.644;2023-03-21T12:04:14;11.30;99.90
53294;DHT22;39181;53.440;5.644;2023-03-21T12:06:52;11.20;99.90
53294;DHT22;39181;53.440;5.644;2023-03-21T12:25:24;11.70;99.90
53294;DHT22;39181;53.440;5.644;2023-03-21T12:28:15;11.60;99.90
53294;DHT22;39181;53.440;5.644;2023-03-21T12:30:56;11.40;99.90
53294;DHT22;39181;53.440;5.644;2023-03-21T12:39:34;11.40;99.90
53294;DHT22;39181;53.440;5.644;2023-03-21T12:44:46;11.70;99.90
53294;DHT22;39181;53.440;5.644;2023-03-21T12:47:23;11.90;99.90
53294;DHT22;39181;53.440;5.644;2023-03-21T12:50:04;11.90;99.90
53294;DHT22;39181;53.440;5.644;2023-03-21T12:52:38;11.90;99.90
53294;DHT22;39181;53.440;5.644;2023-03-21T12:55:12;11.80;99.90
53294;DHT22;39181;53.440;5.644;2023-03-21T12:57:53;11.80;99.90
53294;DHT22;39181;53.440;5.644;2023-03-21T13:00:41;11.90;99.90
53294;DHT22;39181;53.440;5.644;2023-03-21T13:03:18;12.00;99.90
53294;DHT22;39181;53.440;5.644;2023-03-21T13:05:51;12.20;99.90
53294;DHT22;39181;53.440;5.644;2023-03-21T13:11:00;12.30;99.90
53294;DHT22;39181;53.440;5.644;2023-03-21T13:13:46;12.40;99.90
53294;DHT22;39181;53.440;5.644;2023-03-21T13:18:58;12.60;99.90
53294;DHT22;39181;53.440;5.644;2023-03-21T13:21:33;12.70;99.90
53294;DHT22;39181;53.440;5.644;2023-03-21T13:27:02;12.70;99.90
53294;DHT22;39181;53.440;5.644;2023-03-21T13:29:41;12.70;99.90
53294;DHT22;39181;53.440;5.644;2023-03-21T13:32:15;12.70;99.90
53294;DHT22;39181;53.440;5.644;2023-03-21T13:34:44;12.70;99.90
53294;DHT22;39181;53.440;5.644;2023-03-21T13:37:16;12.70;99.90
53294;DHT22;39181;53.440;5.644;2023-03-21T13:39:43;12.70;99.90
53294;DHT22;39181;53.440;5.644;2023-03-21T13:42:21;12.60;99.90
53294;DHT22;39181;53.440;5.644;2023-03-21T13:44:52;12.60;99.90
53294;DHT22;39181;53.440;5.644;2023-03-21T13:47:38;12.50;99.90
53294;DHT22;39181;53.440;5.644;2023-03-21T13:52:38;12.50;99.90
53294;DHT22;39181;53.440;5.644;2023-03-21T13:55:15;12.50;99.90
53294;DHT22;39181;53.440;5.644;2023-03-21T13:57:41;12.50;99.90
53294;DHT22;39181;53.440;5.644;2023-03-21T14:00:21;12.60;99.90
53294;DHT22;39181;53.440;5.644;2023-03-21T14:03:05;12.70;99.90
53294;DHT22;39181;53.440;5.644;2023-03-21T14:05:32;12.90;99.90
53294;DHT22;39181;53.440;5.644;2023-03-21T14:08:05;13.10;99.90
53294;DHT22;39181;53.440;5.644;2023-03-21T14:10:38;13.20;99.90
53294;DHT22;39181;53.440;5.644;2023-03-21T14:13:06;13.10;99.90
53294;DHT22;39181;53.440;5.644;2023-03-21T14:15:59;13.20;99.90
53294;DHT22;39181;53.440;5.644;2023-03-21T14:18:26;13.20;99.90
53294;DHT22;39181;53.440;5.644;2023-03-21T14:20:57;13.10;99.90
53294;DHT22;39181;53.440;5.644;2023-03-21T14:23:23;13.00;99.90
53294;DHT22;39181;53.440;5.644;2023-03-21T14:25:49;12.90;99.90
53294;DHT22;39181;53.440;5.644;2023-03-21T14:28:19;12.80;99.90
53294;DHT22;39181;53.440;5.644;2023-03-21T14:30:50;12.70;99.90
53294;DHT22;39181;53.440;5.644;2023-03-21T14:33:27;12.50;99.90
53294;DHT22;39181;53.440;5.644;2023-03-21T14:35:57;12.40;99.90
53294;DHT22;39181;53.440;5.644;2023-03-21T14:38:25;12.30;99.90
53294;DHT22;39181;53.440;5.644;2023-03-21T14:40:54;12.20;99.90
53294;DHT22;39181;53.440;5.644;2023-03-21T14:43:21;12.10;99.90
53294;DHT22;39181;53.440;5.644;2023-03-21T14:45:49;12.00;99.90
53294;DHT22;39181;53.440;5.644;2023-03-21T14:48:17;11.90;99.90
53294;DHT22;39181;53.440;5.644;2023-03-21T14:50:51;11.80;99.90
53294;DHT22;39181;53.440;5.644;2023-03-21T14:53:27;11.70;99.90
53294;DHT22;39181;53.440;5.644;2023-03-21T14:56:21;11.70;99.90
53294;DHT22;39181;53.440;5.644;2023-03-21T14:58:47;11.60;99.90
53294;DHT22;39181;53.440;5.644;2023-03-21T15:01:19;11.50;99.90
53294;DHT22;39181;53.440;5.644;2023-03-21T15:03:46;11.50;99.90
53294;DHT22;39181;53.440;5.644;2023-03-21T15:06:14;11.50;99.90
53294;DHT22;39181;53.440;5.644;2023-03-21T15:08:53;11.50;99.90
53294;DHT22;39181;53.440;5.644;2023-03-21T15:11:31;11.40;99.90
53294;DHT22;39181;53.440;5.644;2023-03-21T15:14:02;11.30;99.90
53294;DHT22;39181;53.440;5.644;2023-03-21T15:16:30;11.20;99.90
53294;DHT22;39181;53.440;5.644;2023-03-21T15:18:56;11.10;99.90
53294;DHT22;39181;53.440;5.644;2023-03-21T15:21:34;11.10;99.90
53294;DHT22;39181;53.440;5.644;2023-03-21T15:24:13;11.00;99.90
53294;DHT22;39181;53.440;5.644;2023-03-21T15:26:44;10.90;99.90
53294;DHT22;39181;53.440;5.644;2023-03-21T15:29:10;10.90;99.90
53294;DHT22;39181;53.440;5.644;2023-03-21T15:31:39;10.80;99.90
53294;DHT22;39181;53.440;5.644;2023-03-21T15:34:05;10.90;99.90
53294;DHT22;39181;53.440;5.644;2023-03-21T15:36:34;10.80;99.90
53294;DHT22;39181;53.440;5.644;2023-03-21T15:39:04;10.80;99.90
53294;DHT22;39181;53.440;5.644;2023-03-21T15:41:31;10.70;99.90
53294;DHT22;39181;53.440;5.644;2023-03-21T15:51:41;10.80;99.90
53294;DHT22;39181;53.440;5.644;2023-03-21T15:54:13;10.80;99.90
53294;DHT22;39181;53.440;5.644;2023-03-21T15:56:40;10.70;99.90
53294;DHT22;39181;53.440;5.644;2023-03-21T15:59:13;10.70;99.90
53294;DHT22;39181;53.440;5.644;2023-03-21T16:01:45;10.70;99.90
53294;DHT22;39181;53.440;5.644;2023-03-21T16:04:11;10.70;99.90
53294;DHT22;39181;53.440;5.644;2023-03-21T16:09:22;10.70;99.90
53294;DHT22;39181;53.440;5.644;2023-03-21T16:11:49;10.60;99.90
53294;DHT22;39181;53.440;5.644;2023-03-21T16:14:15;10.70;99.90
53294;DHT22;39181;53.440;5.644;2023-03-21T16:16:42;10.60;99.90
53294;DHT22;39181;53.440;5.644;2023-03-21T16:19:07;10.60;99.90
53294;DHT22;39181;53.440;5.644;2023-03-21T16:21:33;10.60;99.90
53294;DHT22;39181;53.440;5.644;2023-03-21T16:24:02;10.50;99.90
53294;DHT22;39181;53.440;5.644;2023-03-21T16:26:30;10.50;99.90
53294;DHT22;39181;53.440;5.644;2023-03-21T16:28:56;10.50;99.90
53294;DHT22;39181;53.440;5.644;2023-03-21T16:31:27;10.50;99.90
53294;DHT22;39181;53.440;5.644;2023-03-21T16:33:54;10.50;99.90
53294;DHT22;39181;53.440;5.644;2023-03-21T16:36:26;10.50;99.90
53294;DHT22;39181;53.440;5.644;2023-03-21T16:38:53;10.40;99.90
53294;DHT22;39181;53.440;5.644;2023-03-21T16:41:24;10.40;99.90
53294;DHT22;39181;53.440;5.644;2023-03-21T16:43:50;10.40;99.90
53294;DHT22;39181;53.440;5.644;2023-03-21T16:46:24;10.40;99.90
53294;DHT22;39181;53.440;5.644;2023-03-21T16:48:52;10.40;99.90
53294;DHT22;39181;53.440;5.644;2023-03-21T16:51:23;10.40;99.90
53294;DHT22;39181;53.440;5.644;2023-03-21T16:53:54;10.30;99.90
53294;DHT22;39181;53.440;5.644;2023-03-21T16:56:37;10.30;99.90
53294;DHT22;39181;53.440;5.644;2023-03-21T16:59:04;10.20;99.90
53294;DHT22;39181;53.440;5.644;2023-03-21T17:01:31;10.20;99.90
53294;DHT22;39181;53.440;5.644;2023-03-21T17:03:57;10.20;99.90
53294;DHT22;39181;53.440;5.644;2023-03-21T17:06:24;10.20;99.90
53294;DHT22;39181;53.440;5.644;2023-03-21T17:08:52;10.20;99.90
53294;DHT22;39181;53.440;5.644;2023-03-21T17:11:20;10.10;99.90
53294;DHT22;39181;53.440;5.644;2023-03-21T17:13:51;10.10;99.90
53294;DHT22;39181;53.440;5.644;2023-03-21T17:16:22;10.10;99.90
53294;DHT22;39181;53.440;5.644;2023-03-21T17:18:49;10.10;99.90
53294;DHT22;39181;53.440;5.644;2023-03-21T17:21:18;10.10;99.90
53294;DHT22;39181;53.440;5.644;2023-03-21T17:23:44;10.00;99.90
53294;DHT22;39181;53.440;5.644;2023-03-21T17:26:12;10.10;99.90
53294;DHT22;39181;53.440;5.644;2023-03-21T17:28:39;10.10;99.90
53294;DHT22;39181;53.440;5.644;2023-03-21T17:31:13;10.00;99.90